Terminal Aerodrome Forecast
Issued by NWS Topeka, KS

Home | Current Version | Previous Version | Text Only | Print | Product List | Glossary Off
Versions: 1 2 3 4 5 6 7 8 9 10 11 12 13 14

000
FTUS43 KTOP 150200 AAB
TAFTOP
TAF AMD
KTOP 150200Z 1502/1524 32017G28KT P6SM VCSH BKN020
     FM150500 32017G28KT P6SM BKN020
     FM150900 32011KT P6SM SCT030 SCT250
     FM151400 32010KT P6SM FEW250=

USA.gov is the U.S. government's official web portal to all federal, state and local government web resources and services.